Time;durP1;ratioP1;P1;durP2;ratioP2;P2;SDS_P1;SDS_P2;PMS_P1;PMS_P2;Temp;Humidity;BMP_temperature;BMP_pressure;BME280_temperature;BME280_humidity;BME280_pressure;Samples;Min_cycle;Max_cycle;Signal;HPM_P1;HPM_P2
2022/05/04 00:00:49;;;;;;;4.95;2.60;;;;;;;20.44;43.87;96845.56;5011166;28;20547;-30
2022/05/04 00:03:15;;;;;;;3.17;2.88;;;;;;;20.44;43.84;96840.06;5012944;28;20026;-30
2022/05/04 00:05:41;;;;;;;3.63;2.90;;;;;;;20.40;43.91;96836.72;5011962;28;20037;-30
2022/05/04 00:08:07;;;;;;;4.10;3.00;;;;;;;20.44;43.88;96851.06;5012619;28;20080;-30
2022/05/04 00:10:36;;;;;;;3.50;3.20;;;;;;;20.42;43.96;96844.53;5013400;28;20080;-29
2022/05/04 00:13:02;;;;;;;5.13;3.25;;;;;;;20.35;44.09;96842.16;5000574;28;20035;-30
2022/05/04 00:15:27;;;;;;;3.45;2.90;;;;;;;20.41;43.72;96843.75;5000429;28;20177;-32
2022/05/04 00:17:53;;;;;;;3.70;3.20;;;;;;;20.42;44.00;96834.25;5013432;28;20500;-31
2022/05/04 00:20:19;;;;;;;4.07;3.03;;;;;;;20.42;43.96;96839.78;5013176;28;20385;-32
2022/05/04 00:22:44;;;;;;;3.67;2.70;;;;;;;20.38;44.20;96827.47;5012696;28;20085;-29
2022/05/04 00:25:11;;;;;;;3.70;3.25;;;;;;;20.38;44.20;96838.47;5002911;28;20026;-30
2022/05/04 00:27:37;;;;;;;3.53;3.15;;;;;;;20.37;43.95;96829.44;4993517;28;20037;-30
2022/05/04 00:30:05;;;;;;;4.25;3.17;;;;;;;20.37;43.89;96834.22;4995593;28;20033;-30
2022/05/04 00:32:31;;;;;;;4.28;3.00;;;;;;;20.35;43.90;96831.94;5004073;28;20034;-30
2022/05/04 00:34:57;;;;;;;3.28;2.97;;;;;;;20.29;43.89;96828.31;5015987;28;20037;-31
2022/05/04 00:37:23;;;;;;;3.15;2.78;;;;;;;20.30;43.82;96829.81;5016666;28;20026;-31
2022/05/04 00:39:49;;;;;;;3.83;2.88;;;;;;;20.36;43.58;96827.19;5016732;28;20048;-30
2022/05/04 00:42:16;;;;;;;3.13;2.70;;;;;;;20.35;43.46;96833.91;5011612;28;20030;-30
2022/05/04 00:44:43;;;;;;;3.28;2.80;;;;;;;20.41;43.58;96831.97;4996969;28;20101;-30
2022/05/04 00:47:09;;;;;;;4.25;2.80;;;;;;;20.35;43.60;96831.13;5016153;28;20087;-30
2022/05/04 00:49:35;;;;;;;6.43;3.00;;;;;;;20.23;43.67;96833.00;5016353;28;20534;-29
2022/05/04 00:52:02;;;;;;;3.50;3.20;;;;;;;20.33;43.51;96833.63;5014703;28;20069;-30
2022/05/04 00:54:29;;;;;;;3.45;2.97;;;;;;;20.31;43.38;96836.09;4997134;28;20050;-32
2022/05/04 00:56:55;;;;;;;3.20;2.90;;;;;;;20.34;43.38;96838.66;4997237;28;20040;-30
2022/05/04 00:59:22;;;;;;;2.83;2.60;;;;;;;20.34;43.38;96841.41;4996834;28;20061;-30
2022/05/04 01:01:47;;;;;;;5.18;2.70;;;;;;;20.34;43.34;96838.66;4999411;28;21104;-30
2022/05/04 01:04:13;;;;;;;3.20;2.83;;;;;;;20.28;43.30;96835.03;5006194;28;20116;-30
2022/05/04 01:06:38;;;;;;;3.15;2.85;;;;;;;20.33;43.16;96841.88;5001110;28;20061;-31
2022/05/04 01:09:06;;;;;;;3.30;3.00;;;;;;;20.32;43.11;96841.13;5016124;28;20034;-30
2022/05/04 01:11:32;;;;;;;3.17;2.90;;;;;;;20.31;43.17;96841.59;5016166;28;20080;-31
2022/05/04 01:14:09;;;;;;;3.63;2.97;;;;;;;20.33;43.06;96837.13;5015332;28;20093;-30
2022/05/04 01:16:36;;;;;;;3.50;3.20;;;;;;;20.37;42.93;96837.72;5016053;28;20037;-30
2022/05/04 01:19:03;;;;;;;3.75;2.78;;;;;;;20.37;42.98;96831.44;5015903;28;20029;-31
2022/05/04 01:21:28;;;;;;;3.47;2.75;;;;;;;20.36;43.01;96835.44;5012759;28;20034;-29
2022/05/04 01:23:54;;;;;;;4.90;3.05;;;;;;;20.34;43.00;96835.88;5012400;28;20091;-30
2022/05/04 01:26:20;;;;;;;4.00;3.00;;;;;;;20.29;43.09;96833.06;5015927;28;20034;-30
2022/05/04 01:28:46;;;;;;;3.30;3.00;;;;;;;20.28;43.14;96840.56;5015853;28;20036;-30
2022/05/04 01:31:13;;;;;;;4.25;3.10;;;;;;;20.24;43.14;96837.25;5015238;28;20030;-30
2022/05/04 01:33:39;;;;;;;3.15;2.65;;;;;;;20.29;43.13;96841.31;4996118;28;20069;-30
2022/05/04 01:36:06;;;;;;;3.95;3.13;;;;;;;20.32;43.17;96846.63;5011195;28;20168;-30
2022/05/04 01:38:32;;;;;;;3.10;2.80;;;;;;;20.31;43.14;96841.59;5015543;28;20029;-30
2022/05/04 01:40:58;;;;;;;4.65;3.20;;;;;;;20.30;43.07;96846.34;5012750;28;20022;-31
2022/05/04 01:43:23;;;;;;;3.40;3.08;;;;;;;20.26;43.17;96850.56;5015345;28;20029;-30
2022/05/04 01:45:49;;;;;;;4.00;3.13;;;;;;;20.28;43.17;96854.31;5014164;28;20025;-30
2022/05/04 01:48:14;;;;;;;4.93;3.20;;;;;;;20.30;42.96;96854.59;5015249;28;20058;-30
2022/05/04 01:50:40;;;;;;;3.47;3.17;;;;;;;20.29;43.24;96850.34;5015571;28;20030;-30
2022/05/04 01:53:06;;;;;;;3.45;3.13;;;;;;;20.29;42.99;96853.09;4997853;28;20362;-30
2022/05/04 01:55:35;;;;;;;4.22;3.20;;;;;;;20.33;42.86;96863.91;4995630;28;20370;-30
2022/05/04 01:58:01;;;;;;;4.93;3.30;;;;;;;20.32;42.97;96867.91;4995665;28;20108;-33
2022/05/04 02:00:27;;;;;;;4.38;3.20;;;;;;;20.31;42.96;96867.16;4995653;28;20030;-30
2022/05/04 02:02:55;;;;;;;3.92;3.03;;;;;;;20.37;42.67;96875.53;5013697;28;20037;-29
2022/05/04 02:05:22;;;;;;;3.90;3.22;;;;;;;20.35;42.83;96867.75;5014517;28;20088;-30
2022/05/04 02:07:48;;;;;;;5.45;3.42;;;;;;;20.30;42.90;96871.13;5015026;28;20030;-30
2022/05/04 02:10:15;;;;;;;4.72;3.28;;;;;;;20.29;42.78;96875.13;5014935;28;20194;-30
2022/05/04 02:12:40;;;;;;;4.45;3.30;;;;;;;20.24;42.99;96875.81;5014064;28;20030;-30
2022/05/04 02:15:08;;;;;;;4.55;3.55;;;;;;;20.25;42.92;96880.09;5014932;28;20048;-30
2022/05/04 02:17:34;;;;;;;4.43;3.88;;;;;;;20.26;42.89;96884.38;5015105;28;20022;-30
2022/05/04 02:20:00;;;;;;;5.40;3.25;;;;;;;20.26;42.77;96880.84;5014107;28;20034;-30
2022/05/04 02:22:25;;;;;;;4.10;3.08;;;;;;;20.27;42.79;96880.38;5014663;28;20114;-30
2022/05/04 02:24:51;;;;;;;5.90;3.20;;;;;;;20.18;42.82;96880.47;5013925;28;20030;-30
2022/05/04 02:27:16;;;;;;;3.75;3.28;;;;;;;20.29;42.63;96885.38;5013955;28;20127;-30
2022/05/04 02:29:42;;;;;;;3.90;3.35;;;;;;;20.22;42.63;96883.81;5014741;28;20069;-30
2022/05/04 02:32:07;;;;;;;3.90;3.40;;;;;;;20.21;42.76;96885.03;5014636;28;20026;-30
2022/05/04 02:34:33;;;;;;;4.05;3.30;;;;;;;20.21;42.70;96882.28;5013866;28;20105;-30
2022/05/04 02:39:42;;;;;;;3.63;3.00;;;;;;;20.20;42.55;96867.00;5014721;28;20025;-30
2022/05/04 02:42:08;;;;;;;5.38;3.50;;;;;;;20.21;42.54;96874.03;4994782;28;20026;-29
2022/05/04 02:44:33;;;;;;;5.20;3.28;;;;;;;20.23;42.52;96873.53;4998517;28;20033;-30
2022/05/04 02:46:59;;;;;;;4.10;3.65;;;;;;;20.21;42.40;96873.25;5014357;28;20076;-30
2022/05/04 02:49:25;;;;;;;4.40;3.53;;;;;;;20.17;42.57;96878.97;5014016;28;20056;-30
2022/05/04 02:51:51;;;;;;;6.13;3.83;;;;;;;20.21;42.46;96879.53;5014118;28;20034;-30
2022/05/04 02:54:16;;;;;;;4.20;3.50;;;;;;;20.14;42.58;96879.94;5011058;28;20111;-29
2022/05/04 02:56:42;;;;;;;6.22;3.47;;;;;;;20.14;42.58;96877.19;4994661;28;20066;-30
2022/05/04 02:59:07;;;;;;;4.97;3.65;;;;;;;20.12;42.60;96874.16;5010849;28;20075;-30
2022/05/04 03:04:17;;;;;;;4.18;3.60;;;;;;;20.12;42.46;96878.91;5012151;28;20089;-30
2022/05/04 03:06:42;;;;;;;4.53;4.07;;;;;;;20.18;42.24;96879.72;4993453;28;20468;-30
2022/05/04 03:09:09;;;;;;;4.40;3.28;;;;;;;20.14;42.32;96874.44;4994478;28;20416;-30
2022/05/04 03:11:54;;;;;;;4.03;3.10;;;;;;;20.13;42.52;96875.66;4994416;28;20105;-31
2022/05/04 03:14:21;;;;;;;5.57;3.58;;;;;;;20.14;42.39;96868.91;4994627;28;20030;-31
2022/05/04 03:16:53;;;;;;;5.25;3.50;;;;;;;20.11;42.72;96869.88;4994424;28;20065;-30
2022/05/04 03:19:20;;;;;;;5.20;3.35;;;;;;;20.13;42.91;96867.41;4997066;28;20030;-30
2022/05/04 03:21:47;;;;;;;6.43;4.20;;;;;;;20.16;42.97;96871.16;5003579;28;20095;-30
2022/05/04 03:24:12;;;;;;;4.85;3.88;;;;;;;20.07;43.26;96869.31;5013749;28;20029;-30
2022/05/04 03:26:38;;;;;;;6.07;4.07;;;;;;;20.06;43.39;96871.31;5013778;28;20026;-30
2022/05/04 03:29:04;;;;;;;5.15;3.90;;;;;;;20.11;43.21;96875.38;5014136;28;20045;-29
2022/05/04 03:31:30;;;;;;;4.88;3.15;;;;;;;20.11;43.23;96872.63;5006504;28;20018;-30
2022/05/04 03:33:56;;;;;;;4.22;3.65;;;;;;;20.12;43.40;96876.13;4994018;28;20041;-29
2022/05/04 03:36:21;;;;;;;4.53;3.42;;;;;;;20.10;43.72;96873.88;4994220;28;20049;-30
2022/05/04 03:38:47;;;;;;;5.95;3.78;;;;;;;20.10;43.26;96876.63;5002654;28;20018;-30
2022/05/04 03:41:13;;;;;;;5.22;3.70;;;;;;;20.02;43.48;96878.25;5012293;28;20596;-29
2022/05/04 03:43:38;;;;;;;5.05;3.28;;;;;;;20.04;43.09;96882.03;5013589;28;20026;-30
2022/05/04 03:46:24;;;;;;;5.63;3.50;;;;;;;20.01;43.47;96885.75;5013478;28;20037;-29
2022/05/04 03:48:52;;;;;;;4.70;3.58;;;;;;;20.04;43.37;96887.53;5012356;28;20037;-30
2022/05/04 03:51:19;;;;;;;5.78;3.58;;;;;;;20.07;43.15;96891.34;5011698;28;20038;-30
2022/05/04 03:53:45;;;;;;;5.60;3.95;;;;;;;20.06;43.36;96896.09;5013664;28;20030;-30
2022/05/04 03:56:11;;;;;;;5.28;4.22;;;;;;;20.07;43.23;96892.09;5013775;28;20423;-30
2022/05/04 03:58:37;;;;;;;4.78;3.72;;;;;;;20.11;43.35;96896.66;5012113;28;20030;-29
2022/05/04 04:01:06;;;;;;;5.38;3.88;;;;;;;20.08;43.37;96892.84;5013492;28;20044;-29
2022/05/04 04:03:32;;;;;;;4.13;3.63;;;;;;;20.05;43.34;96897.31;5013428;28;20026;-32
2022/05/04 04:05:58;;;;;;;3.70;3.40;;;;;;;20.00;43.41;96906.25;5017323;28;20030;-30
2022/05/04 04:08:24;;;;;;;4.90;3.60;;;;;;;20.03;43.31;96901.78;5006073;28;20042;-30
2022/05/04 04:10:49;;;;;;;4.95;3.95;;;;;;;20.05;43.57;96900.06;4999704;28;20022;-30
2022/05/04 04:13:15;;;;;;;4.55;3.60;;;;;;;20.02;43.48;96905.78;5015203;28;20530;-29
2022/05/04 04:15:41;;;;;;;4.65;3.60;;;;;;;19.99;43.61;96917.75;5017201;28;20022;-30
2022/05/04 04:18:07;;;;;;;4.65;3.67;;;;;;;20.02;43.56;96922.31;5017507;28;20029;-30
2022/05/04 04:23:17;;;;;;;4.88;3.85;;;;;;;19.94;43.81;96926.66;5016828;28;20080;-29
2022/05/04 04:25:43;;;;;;;3.90;3.50;;;;;;;19.97;43.68;96926.47;5014837;28;20030;-32
2022/05/04 04:28:09;;;;;;;6.18;3.80;;;;;;;19.95;43.61;96930.94;5015383;28;20439;-31
2022/05/04 04:30:39;;;;;;;3.95;3.55;;;;;;;19.94;43.69;96930.19;5016841;28;20033;-30
2022/05/04 04:33:08;;;;;;;5.97;4.45;;;;;;;19.93;43.83;96927.91;4998754;28;20038;-30
2022/05/04 04:35:34;;;;;;;5.40;4.35;;;;;;;19.88;43.87;96939.59;4996645;28;20022;-30
2022/05/04 04:38:00;;;;;;;5.78;4.22;;;;;;;19.88;43.98;96934.09;4995182;28;20495;-30
2022/05/04 04:40:26;;;;;;;5.88;3.63;;;;;;;19.87;44.01;96933.31;4994991;28;20043;-30
2022/05/04 04:42:51;;;;;;;6.70;4.50;;;;;;;19.83;44.21;96938.25;4993849;28;20034;-30
2022/05/04 04:45:17;;;;;;;6.05;4.00;;;;;;;19.91;44.27;96936.63;4995227;28;20081;-30
2022/05/04 04:47:46;;;;;;;5.78;4.35;;;;;;;19.96;43.89;96938.72;4994729;28;20046;-30
2022/05/04 04:50:12;;;;;;;7.68;4.70;;;;;;;19.87;44.17;96933.31;5013722;28;20125;-30
2022/05/04 04:52:37;;;;;;;7.60;4.40;;;;;;;19.82;44.53;96941.47;5012277;28;20112;-30
2022/05/04 04:55:04;;;;;;;5.30;4.43;;;;;;;19.84;44.32;96942.53;5014537;28;20026;-30
2022/05/04 04:57:30;;;;;;;5.88;4.78;;;;;;;19.79;44.57;96943.19;5014427;28;20026;-31
2022/05/04 04:59:55;;;;;;;6.53;4.82;;;;;;;19.86;44.48;96944.81;5012186;28;20089;-31
2022/05/04 05:02:21;;;;;;;6.68;5.00;;;;;;;19.81;44.80;96942.72;5012014;28;20439;-31
2022/05/04 05:04:46;;;;;;;7.25;4.75;;;;;;;19.85;44.89;96946.81;5007448;28;20484;-30
2022/05/04 05:07:12;;;;;;;6.28;5.13;;;;;;;19.84;44.87;96950.03;5007041;28;20030;-30
2022/05/04 05:09:37;;;;;;;6.80;5.05;;;;;;;19.83;44.81;96946.50;5014248;28;20034;-30
2022/05/04 05:12:03;;;;;;;7.78;5.47;;;;;;;19.88;44.92;96953.34;5013972;28;20733;-30
2022/05/04 05:17:12;;;;;;;8.32;5.95;;;;;;;19.81;45.62;96956.47;5011460;28;20037;-30
2022/05/04 05:19:38;;;;;;;9.43;5.72;;;;;;;19.81;45.55;96968.25;5014169;28;20030;-29
2022/05/04 05:22:04;;;;;;;6.35;5.07;;;;;;;19.80;45.75;96963.22;5013890;28;20022;-30
2022/05/04 05:24:29;;;;;;;7.07;5.20;;;;;;;19.89;45.25;96963.13;5014615;28;20040;-29
2022/05/04 05:26:55;;;;;;;7.10;5.18;;;;;;;19.86;45.53;96958.56;5013873;28;20037;-30
2022/05/04 05:29:20;;;;;;;7.70;5.63;;;;;;;19.79;46.10;96959.69;5013785;28;20033;-30
2022/05/04 05:31:46;;;;;;;7.63;5.75;;;;;;;19.84;45.74;96964.56;5028873;28;20030;-30
2022/05/04 05:34:11;;;;;;;6.05;4.80;;;;;;;19.85;46.02;96965.31;5013385;28;20460;-32
2022/05/04 05:36:36;;;;;;;9.75;6.15;;;;;;;19.85;45.67;96965.31;5013526;28;20104;-30
2022/05/04 05:39:03;;;;;;;7.40;5.90;;;;;;;19.87;45.59;96968.34;5013697;28;20431;-30
2022/05/04 05:41:28;;;;;;;10.15;6.22;;;;;;;19.89;45.39;96963.91;5013807;28;20032;-29
2022/05/04 05:43:54;;;;;;;9.52;5.85;;;;;;;19.90;45.77;96975.66;5013568;28;20029;-30
2022/05/04 05:46:19;;;;;;;7.03;5.80;;;;;;;19.85;45.95;96973.56;5013591;28;20490;-30
2022/05/04 05:48:47;;;;;;;9.18;5.75;;;;;;;19.85;45.76;96979.06;5012939;28;20050;-30
2022/05/04 05:51:13;;;;;;;8.63;5.63;;;;;;;19.84;46.19;96972.81;5013233;28;20026;-31
2022/05/04 05:53:38;;;;;;;7.68;5.90;;;;;;;19.88;46.11;96978.13;5003489;28;20105;-30
2022/05/04 05:56:04;;;;;;;7.50;6.18;;;;;;;19.85;46.12;96979.06;5005334;28;20540;-30
2022/05/04 05:58:30;;;;;;;6.13;5.55;;;;;;;19.81;46.54;96984.00;5012445;28;20030;-29
2022/05/04 06:00:55;;;;;;;6.50;5.80;;;;;;;19.82;46.20;96983.53;5002125;28;20030;-30
2022/05/04 06:03:22;;;;;;;8.63;6.03;;;;;;;19.82;46.15;96980.78;5004951;28;20064;-30
2022/05/04 06:05:48;;;;;;;7.93;5.93;;;;;;;19.79;46.44;96986.47;5002053;28;20471;-30
2022/05/04 06:08:13;;;;;;;6.45;5.85;;;;;;;19.80;46.69;96994.25;5008669;28;20038;-30
2022/05/04 06:10:39;;;;;;;6.80;6.07;;;;;;;19.84;46.48;96988.56;5011396;28;20038;-31
2022/05/04 06:13:06;;;;;;;7.28;5.70;;;;;;;19.77;46.75;97002.72;5001616;28;20065;-31
2022/05/04 06:15:32;;;;;;;7.03;5.85;;;;;;;19.78;46.90;96990.47;5013545;28;20054;-31
2022/05/04 06:17:58;;;;;;;7.13;5.32;;;;;;;19.77;47.10;96994.44;5014744;28;20026;-30
2022/05/04 06:20:24;;;;;;;6.47;5.88;;;;;;;19.67;47.15;96994.53;5014617;28;20022;-29
2022/05/04 06:22:50;;;;;;;7.28;5.63;;;;;;;19.78;47.11;96988.44;5015069;28;20345;-33
2022/05/04 06:25:19;;;;;;;6.88;6.05;;;;;;;19.71;46.91;96997.09;5011508;28;20387;-29
2022/05/04 06:27:44;;;;;;;6.78;5.82;;;;;;;19.79;46.81;97002.97;5011962;28;20036;-29
2022/05/04 06:35:39;;;;;;;7.80;5.72;;;;;;;19.75;47.38;97000.44;5002788;28;20057;-30
2022/05/04 06:38:04;;;;;;;7.50;6.13;;;;;;;19.73;47.15;97006.41;5002489;28;20061;-30
2022/05/04 06:40:30;;;;;;;6.28;5.30;;;;;;;19.72;47.51;97004.88;5009993;28;20511;-30
2022/05/04 06:42:56;;;;;;;6.90;6.20;;;;;;;19.72;47.11;97004.88;4999037;28;20030;-30
2022/05/04 06:45:21;;;;;;;6.38;5.55;;;;;;;19.73;47.63;97017.41;5008497;28;20105;-30
2022/05/04 06:47:48;;;;;;;7.63;6.18;;;;;;;19.70;47.90;97010.09;4994705;28;20472;-30
2022/05/04 06:50:14;;;;;;;7.78;6.45;;;;;;;19.66;47.98;97017.75;5006181;28;20073;-30
2022/05/04 06:52:39;;;;;;;7.55;6.45;;;;;;;19.67;48.06;97021.28;5013328;28;20113;-30
2022/05/04 06:55:06;;;;;;;7.38;6.53;;;;;;;19.56;49.04;97018.31;5013622;28;20034;-29
2022/05/04 06:57:31;;;;;;;7.07;6.32;;;;;;;19.72;48.07;97015.13;5008414;28;20365;-29
2022/05/04 07:00:00;;;;;;;8.50;6.65;;;;;;;19.67;47.91;97022.03;5005341;28;20106;-30
2022/05/04 07:02:26;;;;;;;9.00;6.25;;;;;;;19.20;50.44;97024.84;4994186;28;20105;-29
2022/05/04 07:04:52;;;;;;;10.00;6.72;;;;;;;19.48;49.36;97020.66;5009243;28;20189;-30
2022/05/04 07:07:17;;;;;;;8.20;6.30;;;;;;;19.57;49.31;97020.59;4994180;28;20034;-29
2022/05/04 07:09:43;;;;;;;7.30;6.10;;;;;;;19.64;48.68;97036.00;5012239;28;20388;-29
2022/05/04 07:12:09;;;;;;;7.45;6.00;;;;;;;19.65;48.31;97021.78;5012047;28;20334;-30
2022/05/04 07:14:34;;;;;;;8.50;6.15;;;;;;;19.68;48.41;97026.31;5006701;28;20034;-30
2022/05/04 07:17:00;;;;;;;6.78;6.07;;;;;;;19.62;48.29;97022.72;5000647;28;20030;-29
2022/05/04 07:19:25;;;;;;;7.72;6.07;;;;;;;19.63;48.45;97029.72;5010628;28;20438;-30
2022/05/04 07:21:51;;;;;;;6.97;5.70;;;;;;;19.68;48.43;97040.06;5011564;28;20036;-32
2022/05/04 07:24:17;;;;;;;8.70;6.38;;;;;;;19.65;48.78;97038.28;5012752;28;20049;-31
2022/05/04 07:26:43;;;;;;;7.82;5.88;;;;;;;19.64;48.53;97036.00;5012724;28;20120;-29
2022/05/04 07:29:09;;;;;;;7.25;6.07;;;;;;;19.68;48.29;97039.31;5011793;28;20032;-30
2022/05/04 07:31:35;;;;;;;11.27;6.43;;;;;;;19.63;48.75;97045.47;5013693;28;20055;-30
2022/05/04 07:34:01;;;;;;;7.90;6.35;;;;;;;19.49;49.41;97046.97;5013198;28;20109;-30
2022/05/04 07:36:27;;;;;;;8.43;6.13;;;;;;;19.64;48.70;97044.25;5013463;28;20109;-30
2022/05/04 07:38:52;;;;;;;12.52;8.45;;;;;;;18.48;52.73;97049.47;5011928;28;20025;-30
2022/05/04 07:44:01;;;;;;;9.80;8.38;;;;;;;19.20;51.16;97044.09;5013569;28;20099;-30
2022/05/04 07:46:27;;;;;;;10.88;8.05;;;;;;;19.33;50.53;97039.09;5013786;28;20457;-29
2022/05/04 07:48:53;;;;;;;11.82;8.18;;;;;;;19.40;50.55;97044.25;5013079;28;20432;-31
2022/05/04 07:51:18;;;;;;;9.48;7.68;;;;;;;19.35;50.45;97042.91;5013573;28;20030;-31
2022/05/04 07:53:45;;;;;;;10.07;8.25;;;;;;;19.53;50.02;97052.28;5013048;28;20033;-29
2022/05/04 07:56:11;;;;;;;9.50;7.95;;;;;;;19.43;50.24;97040.56;5013575;28;20057;-29
2022/05/04 07:58:36;;;;;;;7.50;6.78;;;;;;;19.49;50.04;97049.72;5013548;28;20065;-30
2022/05/04 08:06:30;;;;;;;8.68;7.22;;;;;;;19.53;49.96;97047.56;5013356;28;20499;-29
2022/05/04 08:08:55;;;;;;;8.88;7.40;;;;;;;19.44;50.17;97044.81;5013307;28;20026;-30
2022/05/04 08:11:21;;;;;;;14.35;7.70;;;;;;;19.49;49.90;97046.19;5013171;28;20063;-29
2022/05/04 08:13:46;;;;;;;8.65;7.45;;;;;;;19.42;50.35;97052.78;5013209;28;20058;-30
2022/05/04 08:16:13;;;;;;;8.10;6.45;;;;;;;19.36;50.29;97054.66;5012137;28;20033;-30
2022/05/04 08:18:41;;;;;;;9.40;6.85;;;;;;;19.35;50.08;97047.66;5013143;28;20026;-29
2022/05/04 08:21:08;;;;;;;10.82;7.50;;;;;;;19.34;50.30;97051.63;5013269;28;20026;-29
2022/05/04 08:23:34;;;;;;;7.63;6.47;;;;;;;19.48;49.81;97056.41;5012253;28;20117;-29
2022/05/04 08:26:00;;;;;;;10.18;7.60;;;;;;;19.44;50.13;97061.31;5013068;28;20069;-30
2022/05/04 08:28:26;;;;;;;7.95;6.45;;;;;;;19.28;50.37;97056.28;5013785;28;20030;-30
2022/05/04 08:30:51;;;;;;;8.35;6.18;;;;;;;19.23;50.54;97059.66;5013350;28;20022;-30
2022/05/04 08:33:18;;;;;;;8.40;6.72;;;;;;;19.42;49.82;97058.28;5013352;28;20022;-29
2022/05/04 08:35:44;;;;;;;7.05;6.35;;;;;;;19.45;49.84;97062.84;5013002;28;20037;-29
2022/05/04 08:38:09;;;;;;;7.80;6.78;;;;;;;19.42;49.67;97063.78;5013137;28;20026;-31
2022/05/04 08:40:36;;;;;;;8.32;7.18;;;;;;;19.32;50.04;97054.09;5012986;28;20376;-29
2022/05/04 08:43:07;;;;;;;7.75;6.63;;;;;;;19.44;49.76;97058.56;5013137;28;20045;-29
2022/05/04 08:45:37;;;;;;;9.05;6.45;;;;;;;19.46;49.75;97055.38;5013026;28;20030;-30
2022/05/04 08:48:08;;;;;;;7.78;6.28;;;;;;;19.40;49.71;97060.00;5012756;28;20149;-30
2022/05/04 08:50:35;;;;;;;7.50;6.00;;;;;;;19.47;49.08;97062.38;5014312;28;20026;-29
2022/05/04 08:53:04;;;;;;;7.72;6.20;;;;;;;19.48;48.74;97064.66;5016453;28;20522;-29
2022/05/04 08:55:30;;;;;;;11.32;6.18;;;;;;;19.47;49.15;97060.41;5016765;28;20029;-31
2022/05/04 08:57:55;;;;;;;6.90;5.78;;;;;;;19.45;49.17;97065.59;5016462;28;20388;-29
2022/05/04 09:00:22;;;;;;;6.10;5.28;;;;;;;19.49;48.83;97068.22;5016325;28;20380;-29
2022/05/04 09:02:47;;;;;;;7.30;5.85;;;;;;;19.30;48.59;97068.28;5016280;28;20026;-29
2022/05/04 09:05:23;;;;;;;8.00;5.82;;;;;;;19.37;48.84;97070.72;5016291;28;20021;-29
2022/05/04 09:07:50;;;;;;;9.85;6.07;;;;;;;19.37;48.68;97059.72;5016433;28;20108;-29
2022/05/04 09:10:19;;;;;;;6.93;4.97;;;;;;;19.38;48.25;97069.47;5016308;28;20065;-30
2022/05/04 09:12:46;;;;;;;9.45;5.35;;;;;;;19.46;48.39;97067.13;5016115;28;20036;-30
2022/05/04 09:15:27;;;;;;;9.18;5.53;;;;;;;19.44;48.61;97069.59;5014654;28;20022;-31
2022/05/04 09:18:01;;;;;;;8.77;6.50;;;;;;;19.22;48.97;97075.38;5016364;28;20046;-31
2022/05/04 09:23:25;;;;;;;7.28;5.55;;;;;;;19.30;48.54;97076.56;5016426;28;20036;-29
2022/05/04 09:26:07;;;;;;;8.05;5.75;;;;;;;19.41;48.49;97073.25;5015843;28;20067;-30
2022/05/04 09:28:34;;;;;;;7.77;6.37;;;;;;;19.09;49.03;97074.09;5016153;28;20057;-29
2022/05/04 09:31:06;;;;;;;16.15;9.45;;;;;;;19.21;48.91;97073.09;5015668;28;20030;-31
2022/05/04 09:33:34;;;;;;;10.43;6.20;;;;;;;19.32;48.50;97070.59;5016224;28;20376;-30
2022/05/04 09:36:02;;;;;;;8.50;6.03;;;;;;;19.33;48.19;97072.88;5015670;28;20101;-29
2022/05/04 09:46:49;;;;;;;7.10;5.18;;;;;;;19.51;47.23;97065.75;5015864;28;20045;-29
2022/05/04 09:49:16;;;;;;;6.72;5.18;;;;;;;19.53;47.29;97068.81;5015422;28;20134;-30
2022/05/04 09:51:50;;;;;;;6.28;5.28;;;;;;;19.57;47.20;97069.38;5015430;28;20095;-29
2022/05/04 09:54:28;;;;;;;8.13;5.55;;;;;;;19.37;47.93;97067.19;5015424;28;20036;-31
2022/05/04 09:56:56;;;;;;;6.53;5.47;;;;;;;19.20;48.70;97082.56;5015172;28;20065;-29
2022/05/04 09:59:25;;;;;;;6.05;5.05;;;;;;;19.37;48.11;97075.44;5015352;28;20038;-29
2022/05/04 10:01:51;;;;;;;6.72;4.63;;;;;;;19.26;47.34;97078.72;5014774;28;20049;-30
2022/05/04 10:04:18;;;;;;;6.78;5.30;;;;;;;19.33;47.25;97080.34;5014939;28;20036;-29
2022/05/04 10:06:44;;;;;;;6.93;4.90;;;;;;;19.17;47.83;97069.75;5015241;28;20025;-29
2022/05/04 10:09:11;;;;;;;7.65;5.35;;;;;;;19.04;48.45;97069.25;5015425;28;20029;-29
2022/05/04 10:11:37;;;;;;;5.88;4.95;;;;;;;19.17;48.17;97064.25;5015058;28;20029;-29
2022/05/04 10:14:04;;;;;;;7.13;4.82;;;;;;;19.50;47.29;97072.47;5015000;28;20034;-29
2022/05/04 10:17:11;;;;;;;6.82;4.60;;;;;;;19.47;46.89;97057.66;5014956;28;20030;-30
2022/05/04 10:19:47;;;;;;;6.15;4.88;;;;;;;19.52;46.87;97059.78;5014631;28;20038;-30
2022/05/04 10:22:17;;;;;;;5.43;4.65;;;;;;;19.62;46.55;97061.22;5015016;28;20026;-29
2022/05/04 10:24:45;;;;;;;6.40;4.15;;;;;;;19.65;46.33;97060.28;5014740;28;20033;-29
2022/05/04 10:27:23;;;;;;;5.13;4.25;;;;;;;19.50;46.73;97059.50;5014747;28;20026;-31
2022/05/04 10:32:44;;;;;;;4.80;4.00;;;;;;;19.64;45.61;97053.28;5014792;28;20080;-29
2022/05/04 10:35:27;;;;;;;4.93;4.43;;;;;;;19.61;46.04;97048.69;5015063;28;20025;-29
2022/05/04 10:37:53;;;;;;;;;;;;;;;19.61;45.66;97045.94;5015241;28;20423;-30
2022/05/04 10:40:32;;;;;;;6.75;4.05;;;;;;;19.70;45.47;97045.88;5014873;28;20012;-29
2022/05/04 10:43:12;;;;;;;4.03;3.63;;;;;;;19.74;45.09;97051.19;5014639;28;20026;-29
2022/05/04 10:45:44;;;;;;;5.72;4.30;;;;;;;19.67;45.63;97049.56;5014231;28;20105;-29
2022/05/04 10:48:16;;;;;;;5.32;3.90;;;;;;;19.69;45.14;97046.34;5014325;28;20134;-29
2022/05/04 10:51:06;;;;;;;4.55;4.13;;;;;;;19.73;44.95;97042.19;5014325;28;20030;-29
2022/05/04 10:53:31;;;;;;;5.95;3.65;;;;;;;19.75;44.99;97041.72;5014304;28;20160;-29
2022/05/04 10:56:00;;;;;;;5.72;3.92;;;;;;;19.72;44.71;97045.41;5012984;28;20116;-29
2022/05/04 10:58:37;;;;;;;4.35;3.90;;;;;;;19.68;45.14;97042.81;5014181;28;20494;-29
2022/05/04 11:01:13;;;;;;;5.32;3.45;;;;;;;19.74;44.94;97037.44;5014401;28;20392;-29
2022/05/04 11:03:50;;;;;;;9.73;4.10;;;;;;;19.79;44.45;97030.50;5014077;28;20037;-29
2022/05/04 11:06:28;;;;;;;4.15;3.40;;;;;;;19.83;44.50;97031.84;5014157;28;20109;-30
2022/05/04 11:08:56;;;;;;;5.53;4.03;;;;;;;19.69;44.72;97025.09;5014336;28;20101;-31
2022/05/04 11:11:23;;;;;;;5.47;4.10;;;;;;;19.69;44.50;97027.06;5013852;28;20029;-31
2022/05/04 11:13:49;;;;;;;4.80;3.60;;;;;;;19.79;44.63;97022.25;5013169;28;20037;-29
2022/05/04 11:16:15;;;;;;;5.40;3.80;;;;;;;19.76;44.40;97026.72;5014101;28;20040;-29
2022/05/04 11:18:40;;;;;;;4.90;3.20;;;;;;;19.87;43.97;97026.16;5013986;28;20065;-30
2022/05/04 11:21:14;;;;;;;5.88;3.85;;;;;;;19.84;44.07;97029.84;5013701;28;20096;-30
2022/05/04 11:23:44;;;;;;;5.32;3.78;;;;;;;19.83;44.10;97031.06;5014184;28;20033;-30
2022/05/04 11:26:17;;;;;;;4.25;3.30;;;;;;;19.82;44.17;97040.56;5014164;28;20036;-30
2022/05/04 11:28:43;;;;;;;4.05;3.53;;;;;;;19.91;43.94;97026.72;5013623;28;20022;-30
2022/05/04 11:31:12;;;;;;;4.25;3.55;;;;;;;19.81;44.25;97028.03;5013724;28;20037;-30
2022/05/04 11:33:37;;;;;;;5.53;3.80;;;;;;;19.71;44.54;97019.09;5013666;28;20030;-30
2022/05/04 11:36:03;;;;;;;4.15;3.60;;;;;;;19.77;44.58;97021.97;5013721;28;20028;-29
2022/05/04 11:38:28;;;;;;;5.43;3.33;;;;;;;19.83;44.32;97028.31;5013773;28;20476;-30
2022/05/04 11:40:54;;;;;;;3.45;3.13;;;;;;;19.72;44.73;97021.38;5013558;28;20424;-29
2022/05/04 11:43:34;;;;;;;4.63;3.42;;;;;;;19.59;44.99;97018.16;5013584;28;20087;-29
2022/05/04 11:46:07;;;;;;;4.90;3.80;;;;;;;19.73;44.71;97014.66;5013947;28;20080;-31
2022/05/04 11:48:38;;;;;;;4.97;3.65;;;;;;;19.64;45.22;97014.75;5013362;28;20052;-31
2022/05/04 11:51:04;;;;;;;5.03;3.53;;;;;;;19.67;45.15;97019.28;5013403;28;20105;-30
2022/05/04 11:53:30;;;;;;;5.80;3.45;;;;;;;19.71;44.83;97011.63;5045243;28;20418;-29
2022/05/04 11:55:59;;;;;;;6.65;3.45;;;;;;;19.77;44.87;97005.47;5013557;28;20117;-30
2022/05/04 11:58:28;;;;;;;3.97;3.53;;;;;;;19.84;44.72;97005.06;5013668;28;20463;-29
2022/05/04 12:00:54;;;;;;;5.93;3.80;;;;;;;19.78;45.11;97004.22;5013557;28;20528;-29
2022/05/04 12:03:20;;;;;;;3.83;3.40;;;;;;;19.79;45.04;97013.97;5013316;28;20110;-29
2022/05/04 12:05:46;;;;;;;4.22;3.40;;;;;;;19.83;44.79;97014.56;5013352;28;20022;-29
2022/05/04 12:08:14;;;;;;;4.65;3.30;;;;;;;19.70;45.20;96996.34;5013315;28;20068;-29
2022/05/04 12:10:41;;;;;;;4.20;3.38;;;;;;;19.88;44.71;96989.91;5013172;28;20033;-30
2022/05/04 12:13:06;;;;;;;4.50;3.35;;;;;;;19.86;44.73;97002.63;5013698;28;20415;-29